createdAt,value
2022-11-25T00:00:34.140Z,404.88
2022-11-25T00:01:34.212Z,405.37
2022-11-25T00:02:34.337Z,405.62
2022-11-25T00:03:34.505Z,404.88
2022-11-25T00:04:34.790Z,406.61
2022-11-25T00:05:34.737Z,404.88
2022-11-25T00:06:34.839Z,405.37
2022-11-25T00:07:34.987Z,406.85
2022-11-25T00:08:35.238Z,406.11
2022-11-25T00:09:35.228Z,406.61
2022-11-25T00:10:35.410Z,410.11
2022-11-25T00:11:35.555Z,409.35
2022-11-25T00:12:35.595Z,414.70
2022-11-25T00:13:35.745Z,417.29
2022-11-25T00:14:36.222Z,417.03
2022-11-25T00:15:36.047Z,420.45
2022-11-25T00:16:36.265Z,423.65
2022-11-25T00:17:36.293Z,425.55
2022-11-25T00:18:36.413Z,427.46
2022-11-25T00:19:36.573Z,429.38
2022-11-25T00:20:36.771Z,432.73
2022-11-25T00:21:36.863Z,434.98
2022-11-25T00:22:37.025Z,435.55
2022-11-25T00:23:37.167Z,434.98
2022-11-25T00:24:37.471Z,436.12
2022-11-25T00:25:37.452Z,437.55
2022-11-25T00:26:37.541Z,436.69
2022-11-25T00:27:37.693Z,434.42
2022-11-25T00:28:37.946Z,436.69
2022-11-25T00:29:37.991Z,437.84
2022-11-25T00:30:38.207Z,440.44
2022-11-25T00:31:38.323Z,440.15
2022-11-25T00:32:38.357Z,440.15
2022-11-25T00:33:38.505Z,440.73
2022-11-25T00:34:38.665Z,441.03
2022-11-25T00:35:38.800Z,442.49
2022-11-25T00:36:38.925Z,440.73
2022-11-25T00:37:39.019Z,442.78
2022-11-25T00:38:39.159Z,443.67
2022-11-25T00:39:39.325Z,443.37
2022-11-25T00:40:39.489Z,442.78
2022-11-25T00:41:39.581Z,445.74
2022-11-25T00:42:39.724Z,442.20
2022-11-25T00:43:39.847Z,443.67
2022-11-25T00:44:40.716Z,443.96
2022-11-25T00:45:40.201Z,442.49
2022-11-25T00:46:40.238Z,442.20
2022-11-25T00:47:40.367Z,441.03
2022-11-25T00:48:40.567Z,441.61
2022-11-25T00:49:40.648Z,440.44
2022-11-25T00:50:40.825Z,440.73
2022-11-25T00:51:40.898Z,438.99
2022-11-25T00:52:41.054Z,435.84
2022-11-25T00:53:41.194Z,432.73
2022-11-25T00:54:41.304Z,429.66
2022-11-25T00:55:41.487Z,428.55
2022-11-25T00:56:41.554Z,428.01
2022-11-25T00:57:41.705Z,425.55
2022-11-25T00:58:41.810Z,426.09
2022-11-25T00:59:41.980Z,426.91
2022-11-25T01:00:42.128Z,428.01
2022-11-25T01:01:42.204Z,427.18
2022-11-25T01:02:42.380Z,429.11
2022-11-25T01:03:42.474Z,432.17
2022-11-25T01:04:42.616Z,432.73
2022-11-25T01:05:42.782Z,434.42
2022-11-25T01:06:42.890Z,436.12
2022-11-25T01:07:43.046Z,438.71
2022-11-25T01:08:43.182Z,441.61
2022-11-25T01:09:43.221Z,444.85
2022-11-25T01:10:43.402Z,446.64
2022-11-25T01:11:43.500Z,449.05
2022-11-25T01:12:43.631Z,449.35
2022-11-25T01:13:43.734Z,452.09
2022-11-25T01:14:43.882Z,452.70
2022-11-25T01:15:44.096Z,453.63
2022-11-25T01:16:44.175Z,454.86
2022-11-25T01:17:44.241Z,456.42
2022-11-25T01:18:44.388Z,459.25
2022-11-25T01:19:44.548Z,462.44
2022-11-25T01:20:44.702Z,466.64
2022-11-25T01:21:44.809Z,467.62
2022-11-25T01:22:44.959Z,468.61
2022-11-25T01:23:45.048Z,469.93
2022-11-25T01:24:45.137Z,470.26
2022-11-25T01:25:45.411Z,473.94
2022-11-25T01:26:45.384Z,469.27
2022-11-25T01:27:45.536Z,467.95
2022-11-25T01:28:45.706Z,469.60
2022-11-25T01:29:45.763Z,468.61
2022-11-25T01:30:45.866Z,469.27
2022-11-25T01:31:46.038Z,470.26
2022-11-25T01:32:46.105Z,470.60
2022-11-25T01:33:46.260Z,472.26
2022-11-25T01:34:46.413Z,474.95
2022-11-25T01:35:46.524Z,477.33
2022-11-25T01:36:46.653Z,479.39
2022-11-25T01:37:46.784Z,479.74
2022-11-25T01:38:46.893Z,480.43
2022-11-25T01:39:46.986Z,481.47
2022-11-25T01:40:47.174Z,481.82
2022-11-25T01:41:47.189Z,483.91
2022-11-25T01:42:47.331Z,484.97
2022-11-25T01:43:47.468Z,483.21
2022-11-25T01:44:47.617Z,486.38
2022-11-25T01:45:47.868Z,490.32
2022-11-25T01:46:47.888Z,492.49
2022-11-25T01:47:47.982Z,493.95
2022-11-25T01:48:48.241Z,498.38
2022-11-25T01:49:48.235Z,502.89
2022-11-25T01:50:48.370Z,504.41
2022-11-25T01:51:48.485Z,506.33
2022-11-25T01:52:48.595Z,504.79
2022-11-25T01:53:48.741Z,507.87
2022-11-25T01:54:48.849Z,508.26
2022-11-25T01:55:49.030Z,507.87
2022-11-25T01:56:49.140Z,507.87
2022-11-25T01:57:49.219Z,509.81
2022-11-25T01:58:49.328Z,508.64
2022-11-25T01:59:49.497Z,508.26
2022-11-25T02:00:49.638Z,508.26
2022-11-25T02:01:49.824Z,508.64
2022-11-25T02:02:50.008Z,510.98
2022-11-25T02:03:50.037Z,510.20
2022-11-25T02:04:50.199Z,510.59
2022-11-25T02:05:50.275Z,511.38
2022-11-25T02:06:50.445Z,512.16
2022-11-25T02:07:50.613Z,510.20
2022-11-25T02:08:50.746Z,512.55
2022-11-25T02:09:50.821Z,514.14
2022-11-25T02:10:50.895Z,518.13
2022-11-25T02:11:51.065Z,518.94
2022-11-25T02:12:51.176Z,520.96
2022-11-25T02:13:51.326Z,520.56
2022-11-25T02:14:51.475Z,522.19
2022-11-25T02:15:51.617Z,523.42
2022-11-25T02:16:51.947Z,524.24
2022-11-25T02:17:51.865Z,522.19
2022-11-25T02:18:52.025Z,522.19
2022-11-25T02:19:52.130Z,521.78
2022-11-25T02:20:52.262Z,520.56
2022-11-25T02:21:52.472Z,518.13
2022-11-25T02:22:52.502Z,518.53
2022-11-25T02:23:52.632Z,514.93
2022-11-25T02:24:52.762Z,517.33
2022-11-25T02:25:52.915Z,516.52
2022-11-25T02:26:53.085Z,517.33
2022-11-25T02:27:53.203Z,516.52
2022-11-25T02:28:53.390Z,516.92
2022-11-25T02:29:53.461Z,516.92
2022-11-25T02:30:53.538Z,516.92
2022-11-25T02:31:53.763Z,515.33
2022-11-25T02:32:53.824Z,515.33
2022-11-25T02:33:53.951Z,514.93
2022-11-25T02:34:54.078Z,512.16
2022-11-25T02:35:54.229Z,509.42
2022-11-25T02:36:54.425Z,507.10
2022-11-25T02:37:54.521Z,506.33
2022-11-25T02:38:54.568Z,506.33
2022-11-25T02:39:54.714Z,507.10
2022-11-25T02:40:54.847Z,505.94
2022-11-25T02:41:55.017Z,504.41
2022-11-25T02:42:55.117Z,504.41
2022-11-25T02:43:55.227Z,502.51
2022-11-25T02:44:55.384Z,502.89
2022-11-25T02:45:55.541Z,505.18
2022-11-25T02:46:55.687Z,505.18
2022-11-25T02:47:55.739Z,507.48
2022-11-25T02:49:11.423Z,507.10
2022-11-25T02:49:57.004Z,505.94
2022-11-25T02:50:56.117Z,507.48
2022-11-25T02:51:56.265Z,505.94
2022-11-25T02:52:56.388Z,503.27
2022-11-25T02:53:56.494Z,504.41
2022-11-25T02:54:56.626Z,502.13
2022-11-25T02:55:56.765Z,504.79
2022-11-25T02:56:56.914Z,500.62
2022-11-25T02:57:57.043Z,499.50
2022-11-25T02:58:57.203Z,502.51
2022-11-25T02:59:57.303Z,502.51
2022-11-25T03:00:57.507Z,499.87
2022-11-25T03:01:57.692Z,496.52
2022-11-25T03:02:57.712Z,496.15
2022-11-25T03:03:57.862Z,495.05
2022-11-25T03:04:57.982Z,493.22
2022-11-25T03:05:58.120Z,488.52
2022-11-25T03:06:58.264Z,477.33
2022-11-25T03:07:58.401Z,473.60
2022-11-25T03:08:58.512Z,467.95
2022-11-25T03:09:58.611Z,460.52
2022-11-25T03:10:58.740Z,455.18
2022-11-25T03:11:58.950Z,449.05
2022-11-25T03:12:58.968Z,445.74
2022-11-25T03:13:59.099Z,443.37
2022-11-25T03:14:59.230Z,439.28
2022-11-25T03:15:59.372Z,421.25
2022-11-25T03:16:59.657Z,401.46
2022-11-25T03:17:59.629Z,381.48
2022-11-25T03:18:59.759Z,357.17
2022-11-25T03:19:59.898Z,331.88
2022-11-25T03:21:00.048Z,312.60
2022-11-25T03:22:00.241Z,294.10
2022-11-25T03:23:00.331Z,275.58
2022-11-25T03:24:00.487Z,259.45
2022-11-25T03:25:00.597Z,247.70
2022-11-25T03:26:00.736Z,238.86
2022-11-25T03:27:00.914Z,235.44
2022-11-25T03:28:01.029Z,234.43
2022-11-25T03:29:01.156Z,233.43
2022-11-25T03:30:01.267Z,232.60
2022-11-25T03:31:01.377Z,229.67
2022-11-25T03:32:04.308Z,227.12
2022-11-25T03:33:02.639Z,223.26
2022-11-25T03:34:01.763Z,217.92
2022-11-25T03:35:01.895Z,212.28
2022-11-25T03:36:02.025Z,205.50
2022-11-25T03:37:02.231Z,200.11
2022-11-25T03:38:02.302Z,193.50
2022-11-25T03:39:02.424Z,188.29
2022-11-25T03:40:02.561Z,184.80
2022-11-25T03:41:02.723Z,181.19
2022-11-25T03:42:02.935Z,179.43
2022-11-25T03:43:02.983Z,178.67
2022-11-25T03:44:03.092Z,178.86
2022-11-25T03:45:03.235Z,180.80
2022-11-25T03:46:03.420Z,181.98
2022-11-25T03:47:03.523Z,181.58
2022-11-25T03:48:03.614Z,181.78
2022-11-25T03:49:03.787Z,183.58
2022-11-25T03:50:03.900Z,182.38
2022-11-25T03:51:04.012Z,179.63
2022-11-25T03:52:04.194Z,176.77
2022-11-25T03:53:04.311Z,178.86
2022-11-25T03:54:04.397Z,176.40
2022-11-25T03:55:04.529Z,173.83
2022-11-25T03:56:04.673Z,172.39
2022-11-25T03:57:04.872Z,172.57
2022-11-25T03:58:04.960Z,170.45
2022-11-25T03:59:05.089Z,168.73
2022-11-25T04:00:05.242Z,166.38
2022-11-25T04:01:05.369Z,163.12
2022-11-25T04:02:05.541Z,161.08
2022-11-25T04:03:05.591Z,158.18
2022-11-25T04:04:05.718Z,157.13
2022-11-25T04:05:05.913Z,154.51
2022-11-25T04:06:05.998Z,151.29
2022-11-25T04:07:06.135Z,150.07
2022-11-25T04:08:06.350Z,147.03
2022-11-25T04:09:06.405Z,145.49
2022-11-25T04:10:06.568Z,144.86
2022-11-25T04:11:06.666Z,140.23
2022-11-25T04:12:06.829Z,137.01
2022-11-25T04:13:06.966Z,134.14
2022-11-25T04:14:07.063Z,132.02
2022-11-25T04:15:07.207Z,129.36
2022-11-25T04:16:07.324Z,127.39
2022-11-25T04:17:07.532Z,126.80
2022-11-25T04:18:07.633Z,124.81
2022-11-25T04:19:07.743Z,122.79
2022-11-25T04:20:07.883Z,121.45
2022-11-25T04:21:08.012Z,119.11
2022-11-25T04:22:08.154Z,116.45
2022-11-25T04:23:08.307Z,114.14
2022-11-25T04:24:08.452Z,113.37
2022-11-25T04:25:08.541Z,112.60
2022-11-25T04:26:08.691Z,110.88
2022-11-25T04:27:08.803Z,110.73
2022-11-25T04:28:08.953Z,109.43
2022-11-25T04:29:09.050Z,108.22
2022-11-25T04:30:09.214Z,107.80
2022-11-25T04:31:09.386Z,106.36
2022-11-25T04:32:09.481Z,105.48
2022-11-25T04:33:09.572Z,103.01
2022-11-25T04:34:09.661Z,101.75
2022-11-25T04:35:09.788Z,100.22
2022-11-25T04:36:09.918Z,97.87
2022-11-25T04:37:10.029Z,96.13
2022-11-25T04:38:10.218Z,95.03
2022-11-25T04:39:10.250Z,95.00
2022-11-25T04:40:10.361Z,93.61
2022-11-25T04:41:10.468Z,91.46
2022-11-25T04:42:10.582Z,89.98
2022-11-25T04:43:10.945Z,88.36
2022-11-25T04:44:10.894Z,88.36
2022-11-25T04:45:26.164Z,87.98
2022-11-25T04:46:14.303Z,87.52
2022-11-25T04:47:11.213Z,86.79
2022-11-25T04:48:11.256Z,86.17
2022-11-25T04:49:11.359Z,85.81
2022-11-25T04:50:11.493Z,85.37
2022-11-25T04:51:11.635Z,84.34
2022-11-25T04:52:11.705Z,83.24
2022-11-25T04:53:11.834Z,82.67
2022-11-25T04:54:17.189Z,81.38
2022-11-25T04:55:13.046Z,80.36
2022-11-25T04:56:12.196Z,79.74
2022-11-25T04:57:12.305Z,79.59
2022-11-25T04:58:12.555Z,79.36
2022-11-25T04:59:12.534Z,78.84
2022-11-25T05:00:12.652Z,78.32
2022-11-25T05:01:12.795Z,78.54
2022-11-25T05:02:12.909Z,78.10
2022-11-25T05:03:13.003Z,77.88
2022-11-25T05:04:13.207Z,78.10
2022-11-25T05:05:13.222Z,77.31
2022-11-25T05:06:13.323Z,77.02
2022-11-25T05:07:13.460Z,77.16
2022-11-25T05:08:13.581Z,76.67
2022-11-25T05:09:13.691Z,76.67
2022-11-25T05:10:13.775Z,75.83
2022-11-25T05:11:13.892Z,75.49
2022-11-25T05:12:14.011Z,75.15
2022-11-25T05:13:14.161Z,75.15
2022-11-25T05:14:14.272Z,74.74
2022-11-25T05:15:14.351Z,74.68
2022-11-25T05:16:14.465Z,74.68
2022-11-25T05:17:14.589Z,74.68
2022-11-25T05:18:14.707Z,74.34
2022-11-25T05:19:14.840Z,74.68
2022-11-25T05:20:14.884Z,74.74
2022-11-25T05:21:14.991Z,74.54
2022-11-25T05:22:15.130Z,74.61
2022-11-25T05:23:15.242Z,74.61
2022-11-25T05:24:15.440Z,74.68
2022-11-25T05:25:15.467Z,74.81
2022-11-25T05:26:15.569Z,74.94
2022-11-25T05:27:15.706Z,75.35
2022-11-25T05:28:15.807Z,75.97
2022-11-25T05:29:15.907Z,75.83
2022-11-25T05:30:16.016Z,76.25
2022-11-25T05:31:16.197Z,76.60
2022-11-25T05:32:16.246Z,76.60
2022-11-25T05:33:16.378Z,76.95
2022-11-25T05:34:16.489Z,77.16
2022-11-25T05:35:16.599Z,77.16
2022-11-25T05:36:16.684Z,76.88
2022-11-25T05:37:19.909Z,77.23
2022-11-25T05:38:17.968Z,76.88
2022-11-25T05:39:17.035Z,77.02
2022-11-25T05:40:17.133Z,76.81
2022-11-25T05:41:17.278Z,77.23
2022-11-25T05:42:17.375Z,77.31
2022-11-25T05:43:17.482Z,77.09
2022-11-25T05:44:22.945Z,77.02
2022-11-25T05:45:17.693Z,77.09
2022-11-25T05:46:17.849Z,76.67
2022-11-25T05:47:17.952Z,76.74
2022-11-25T05:48:18.012Z,76.88
2022-11-25T05:49:18.122Z,76.53
2022-11-25T05:50:18.222Z,76.74
2022-11-25T05:51:18.362Z,76.46
2022-11-25T05:52:18.501Z,75.62
2022-11-25T05:53:18.570Z,75.76
2022-11-25T05:54:18.682Z,74.94
2022-11-25T05:55:18.801Z,74.68
2022-11-25T05:56:18.901Z,74.41
2022-11-25T05:57:19.051Z,73.75
2022-11-25T05:58:19.109Z,73.69
2022-11-25T05:59:19.246Z,73.17
2022-11-25T06:00:25.014Z,72.98
2022-11-25T06:01:20.476Z,72.41
2022-11-25T06:02:19.633Z,71.48
2022-11-25T06:03:19.745Z,71.05
2022-11-25T06:04:19.867Z,70.51
2022-11-25T06:05:19.922Z,70.21
2022-11-25T06:06:20.027Z,69.80
2022-11-25T06:07:20.244Z,69.40
2022-11-25T06:08:20.237Z,69.34
2022-11-25T06:09:20.357Z,68.94
2022-11-25T06:10:20.457Z,68.77
2022-11-25T06:11:20.558Z,68.09
2022-11-25T06:12:20.688Z,67.76
2022-11-25T06:13:20.835Z,67.16
2022-11-25T06:14:20.905Z,67.22
2022-11-25T06:15:21.006Z,66.84
2022-11-25T06:16:21.156Z,66.73
2022-11-25T06:17:21.292Z,66.26
2022-11-25T06:18:21.493Z,66.05
2022-11-25T06:19:21.464Z,65.79
2022-11-25T06:20:21.575Z,65.63
2022-11-25T06:21:21.675Z,65.58
2022-11-25T06:22:21.805Z,65.42
2022-11-25T06:23:21.902Z,65.17
2022-11-25T06:24:22.061Z,64.97
2022-11-25T06:25:22.112Z,65.02
2022-11-25T06:26:22.226Z,65.02
2022-11-25T06:27:22.382Z,65.02
2022-11-25T06:28:22.453Z,64.97
2022-11-25T06:29:22.563Z,64.76
2022-11-25T06:30:22.676Z,64.81
2022-11-25T06:31:22.823Z,64.92
2022-11-25T06:32:22.900Z,64.76
2022-11-25T06:33:23.052Z,64.76
2022-11-25T06:34:23.130Z,64.92
2022-11-25T06:35:23.232Z,64.56
2022-11-25T06:36:23.342Z,64.81
2022-11-25T06:37:23.512Z,64.66
2022-11-25T06:38:23.598Z,64.56
2022-11-25T06:39:23.700Z,64.71
2022-11-25T06:40:23.828Z,65.02
2022-11-25T06:41:23.929Z,65.07
2022-11-25T06:42:24.077Z,65.22
2022-11-25T06:43:24.177Z,65.58
2022-11-25T06:44:24.321Z,65.37
2022-11-25T06:45:24.389Z,65.48
2022-11-25T06:46:25.565Z,65.84
2022-11-25T06:47:24.618Z,65.84
2022-11-25T06:48:24.679Z,66.15
2022-11-25T06:49:24.776Z,65.84
2022-11-25T06:50:24.886Z,65.84
2022-11-25T06:51:25.015Z,66.05
2022-11-25T06:52:25.134Z,65.94
2022-11-25T06:53:25.275Z,66.10
2022-11-25T06:54:25.353Z,65.58
2022-11-25T06:55:25.522Z,65.63
2022-11-25T06:56:25.583Z,65.68
2022-11-25T06:57:25.686Z,65.73
2022-11-25T06:58:35.288Z,65.89
2022-11-25T06:59:26.907Z,65.84
2022-11-25T07:00:26.014Z,65.79
2022-11-25T07:01:26.224Z,65.63
2022-11-25T07:02:26.313Z,65.94
2022-11-25T07:03:26.454Z,66.20
2022-11-25T07:04:26.512Z,66.26
2022-11-25T07:05:26.562Z,65.99
2022-11-25T07:06:26.690Z,66.31
2022-11-25T07:07:26.874Z,66.47
2022-11-25T07:08:32.303Z,66.36
2022-11-25T07:09:28.004Z,66.31
2022-11-25T07:10:27.108Z,66.31
2022-11-25T07:11:27.250Z,66.41
2022-11-25T07:12:27.374Z,66.52
2022-11-25T07:13:27.540Z,66.20
2022-11-25T07:14:27.599Z,66.36
2022-11-25T07:15:27.714Z,66.52
2022-11-25T07:16:27.890Z,66.26
2022-11-25T07:17:27.987Z,66.52
2022-11-25T07:18:28.120Z,66.68
2022-11-25T07:19:28.179Z,66.68
2022-11-25T07:20:28.374Z,66.68
2022-11-25T07:21:28.411Z,66.47
2022-11-25T07:22:28.556Z,66.84
2022-11-25T07:23:28.650Z,66.84
2022-11-25T07:24:28.814Z,66.89
2022-11-25T07:25:30.846Z,67.00
2022-11-25T07:26:28.965Z,66.41
2022-11-25T07:27:29.121Z,66.68
2022-11-25T07:28:29.175Z,66.79
2022-11-25T07:30:10.366Z,66.63
2022-11-25T07:31:21.863Z,66.57
2022-11-25T07:31:33.042Z,66.31
2022-11-25T07:32:29.668Z,66.26
2022-11-25T07:33:29.781Z,66.20
2022-11-25T07:34:29.875Z,66.15
2022-11-25T07:35:29.987Z,65.89
2022-11-25T07:36:30.094Z,65.68
2022-11-25T07:37:30.230Z,65.53
2022-11-25T07:38:30.354Z,65.68
2022-11-25T07:39:30.422Z,65.27
2022-11-25T07:40:30.531Z,65.58
2022-11-25T07:41:30.644Z,65.37
2022-11-25T07:42:30.815Z,65.32
2022-11-25T07:43:30.862Z,65.42
2022-11-25T07:44:31.025Z,65.22
2022-11-25T07:45:31.082Z,65.42
2022-11-25T07:46:31.240Z,65.53
2022-11-25T07:47:31.332Z,65.63
2022-11-25T07:48:31.425Z,65.48
2022-11-25T07:49:31.570Z,65.68
2022-11-25T07:50:31.671Z,65.58
2022-11-25T07:51:31.780Z,65.32
2022-11-25T07:52:31.892Z,65.68
2022-11-25T07:53:32.020Z,65.48
2022-11-25T07:54:32.147Z,65.68
2022-11-25T07:55:32.240Z,65.37
2022-11-25T07:56:32.370Z,65.17
2022-11-25T07:57:32.491Z,65.73
2022-11-25T07:58:32.641Z,65.48
2022-11-25T07:59:32.696Z,65.63
2022-11-25T08:00:32.828Z,65.73
2022-11-25T08:01:32.963Z,66.10
2022-11-25T08:02:33.084Z,65.94
2022-11-25T08:03:33.189Z,65.99
2022-11-25T08:04:33.339Z,65.94
2022-11-25T08:05:33.399Z,66.05
2022-11-25T08:06:33.514Z,66.10
2022-11-25T08:07:36.678Z,66.20
2022-11-25T08:08:33.821Z,65.99
2022-11-25T08:09:34.178Z,66.36
2022-11-25T08:10:34.014Z,66.15
2022-11-25T08:11:34.077Z,66.10
2022-11-25T08:12:34.199Z,66.52
2022-11-25T08:13:34.339Z,66.36
2022-11-25T08:14:34.435Z,66.36
2022-11-25T08:15:34.627Z,66.68
2022-11-25T08:16:34.712Z,66.31
2022-11-25T08:17:34.747Z,66.57
2022-11-25T08:18:34.955Z,66.95
2022-11-25T08:19:35.544Z,66.63
2022-11-25T08:20:35.113Z,67.05
2022-11-25T08:21:35.271Z,67.27
2022-11-25T08:22:35.336Z,67.22
2022-11-25T08:23:35.454Z,67.54
2022-11-25T08:24:35.674Z,67.98
2022-11-25T08:25:35.662Z,68.65
2022-11-25T08:26:35.810Z,68.88
2022-11-25T08:27:35.893Z,69.45
2022-11-25T08:28:36.050Z,69.92
2022-11-25T08:29:36.360Z,70.45
2022-11-25T08:30:36.278Z,70.93
2022-11-25T08:31:36.449Z,71.48
2022-11-25T08:32:36.491Z,71.54
2022-11-25T08:33:36.748Z,72.28
2022-11-25T08:34:36.709Z,72.72
2022-11-25T08:35:36.800Z,73.69
2022-11-25T08:36:36.909Z,74.41
2022-11-25T08:37:37.045Z,75.01
2022-11-25T08:38:37.192Z,75.56
2022-11-25T08:39:52.376Z,76.67
2022-11-25T08:40:38.388Z,77.88
2022-11-25T08:41:37.489Z,78.47
2022-11-25T08:42:37.627Z,79.21
2022-11-25T08:43:37.737Z,80.05
2022-11-25T08:44:37.908Z,81.30
2022-11-25T08:45:37.948Z,82.34
2022-11-25T08:46:38.123Z,82.83
2022-11-25T08:47:38.216Z,84.34
2022-11-25T08:48:38.315Z,85.46
2022-11-25T08:49:41.140Z,86.17
2022-11-25T08:50:38.544Z,87.25
2022-11-25T08:51:38.655Z,87.34
2022-11-25T08:52:38.777Z,88.26
2022-11-25T08:53:38.897Z,88.64
2022-11-25T08:54:39.037Z,89.98
2022-11-25T08:55:39.075Z,91.76
2022-11-25T08:56:39.204Z,93.09
2022-11-25T08:57:39.328Z,94.03
2022-11-25T08:58:39.425Z,95.43
2022-11-25T08:59:39.930Z,95.74
2022-11-25T09:00:39.643Z,97.53
2022-11-25T09:01:39.852Z,99.57
2022-11-25T09:02:39.926Z,101.38
2022-11-25T09:03:40.027Z,102.63
2022-11-25T09:04:40.142Z,104.56
2022-11-25T09:05:40.252Z,106.70
2022-11-25T09:06:40.382Z,109.14
2022-11-25T09:07:40.648Z,110.59
2022-11-25T09:08:40.658Z,113.37
2022-11-25T09:09:40.882Z,116.05
2022-11-25T09:10:40.922Z,120.57
2022-11-25T09:11:41.131Z,124.53
2022-11-25T09:12:41.177Z,128.07
2022-11-25T09:13:41.329Z,131.19
2022-11-25T09:14:41.443Z,134.90
2022-11-25T09:15:41.595Z,139.18
2022-11-25T09:16:41.797Z,142.63
2022-11-25T09:17:41.803Z,144.73
2022-11-25T09:18:41.977Z,145.87
2022-11-25T09:19:42.059Z,149.40
2022-11-25T09:20:42.203Z,151.02
2022-11-25T09:21:42.344Z,154.23
2022-11-25T09:22:42.499Z,157.13
2022-11-25T09:23:42.639Z,159.23
2022-11-25T09:24:42.816Z,162.33
2022-11-25T09:25:42.942Z,164.73
2022-11-25T09:26:43.005Z,169.07
2022-11-25T09:27:43.132Z,174.37
2022-11-25T09:28:43.318Z,178.86
2022-11-25T09:29:43.392Z,183.18
2022-11-25T09:30:43.543Z,185.83
2022-11-25T09:31:43.692Z,188.83
2022-11-25T09:32:43.755Z,189.15
2022-11-25T09:33:43.925Z,192.48
2022-11-25T09:34:44.016Z,199.26
2022-11-25T09:35:44.138Z,205.37
2022-11-25T09:36:44.274Z,209.30
2022-11-25T09:37:44.549Z,213.66
2022-11-25T09:38:44.589Z,219.09
2022-11-25T09:39:44.744Z,222.65
2022-11-25T09:40:44.842Z,223.72
2022-11-25T09:41:44.954Z,227.60
2022-11-25T09:42:45.092Z,233.26
2022-11-25T09:43:45.260Z,238.52
2022-11-25T09:44:45.352Z,242.21
2022-11-25T09:45:45.490Z,247.89
2022-11-25T09:46:45.685Z,250.73
2022-11-25T09:47:48.958Z,253.83
2022-11-25T09:48:46.907Z,257.42
2022-11-25T09:49:46.029Z,260.27
2022-11-25T09:50:46.168Z,262.57
2022-11-25T09:51:46.299Z,265.97
2022-11-25T09:52:46.430Z,266.19
2022-11-25T09:53:46.579Z,268.58
2022-11-25T09:54:46.709Z,268.80
2022-11-25T09:55:46.836Z,269.24
2022-11-25T09:56:46.980Z,269.02
2022-11-25T09:57:47.118Z,267.93
2022-11-25T09:58:47.427Z,266.19
2022-11-25T09:59:47.405Z,265.11
2022-11-25T10:00:47.537Z,264.26
2022-11-25T10:01:47.822Z,263.20
2022-11-25T10:02:47.906Z,259.86
2022-11-25T10:03:47.989Z,256.61
2022-11-25T10:04:48.066Z,259.66
2022-11-25T10:05:48.189Z,258.84
2022-11-25T10:06:53.536Z,258.02
2022-11-25T10:07:49.440Z,257.01
2022-11-25T10:08:48.565Z,254.23
2022-11-25T10:09:48.676Z,256.61
2022-11-25T10:10:48.776Z,255.21
2022-11-25T10:11:48.915Z,254.42
2022-11-25T10:12:49.044Z,256.01
2022-11-25T10:13:49.242Z,258.43
2022-11-25T10:14:49.323Z,261.10
2022-11-25T10:15:49.475Z,265.76
2022-11-25T10:16:51.544Z,262.36
2022-11-25T10:17:49.667Z,261.31
2022-11-25T10:18:49.802Z,262.78
2022-11-25T10:19:49.885Z,262.36
2022-11-25T10:20:50.029Z,263.62
2022-11-25T10:21:50.183Z,265.54
2022-11-25T10:22:50.312Z,268.58
2022-11-25T10:23:50.493Z,269.47
2022-11-25T10:24:50.609Z,265.76
2022-11-25T10:25:50.718Z,263.41
2022-11-25T10:26:50.815Z,262.36
2022-11-25T10:27:50.979Z,262.15
2022-11-25T10:28:51.082Z,262.99
2022-11-25T10:29:51.212Z,261.31
2022-11-25T10:30:51.342Z,263.83
2022-11-25T10:31:51.489Z,266.40
2022-11-25T10:32:51.558Z,266.40
2022-11-25T10:33:51.719Z,269.69
2022-11-25T10:34:51.829Z,269.24
2022-11-25T10:35:51.969Z,270.35
2022-11-25T10:36:52.139Z,274.20
2022-11-25T10:37:52.239Z,276.04
2022-11-25T10:38:52.448Z,277.44
2022-11-25T10:39:52.548Z,283.43
2022-11-25T10:40:52.641Z,282.94
2022-11-25T10:41:52.768Z,290.20
2022-11-25T10:42:52.909Z,292.01
2022-11-25T10:43:53.068Z,294.89
2022-11-25T10:44:53.195Z,297.30
2022-11-25T10:45:53.299Z,300.02
2022-11-25T10:47:54.628Z,304.47
2022-11-25T10:48:53.686Z,308.19
2022-11-25T10:49:53.815Z,311.11
2022-11-25T10:50:53.950Z,313.79
2022-11-25T10:51:54.092Z,314.39
2022-11-25T10:52:54.218Z,316.21
2022-11-25T10:53:54.375Z,313.49
2022-11-25T10:54:54.477Z,312.00
2022-11-25T10:55:54.606Z,313.49
2022-11-25T10:56:54.766Z,313.19
2022-11-25T10:57:54.874Z,311.70
2022-11-25T10:58:55.039Z,314.69
2022-11-25T10:59:55.135Z,316.52
2022-11-25T11:00:55.282Z,312.89
2022-11-25T11:01:55.469Z,313.49
2022-11-25T11:02:55.566Z,316.82
2022-11-25T11:03:55.737Z,317.13
2022-11-25T11:04:55.837Z,315.30
2022-11-25T11:05:55.976Z,312.89
2022-11-25T11:06:56.104Z,307.90
2022-11-25T11:07:56.283Z,305.61
2022-11-25T11:08:56.362Z,305.89
2022-11-25T11:09:56.492Z,309.64
2022-11-25T11:10:57.401Z,316.52
2022-11-25T11:11:56.750Z,320.85
2022-11-25T11:12:56.923Z,322.74
2022-11-25T11:13:57.067Z,330.21
2022-11-25T11:14:57.159Z,337.34
2022-11-25T11:15:57.327Z,338.39
2022-11-25T11:16:57.371Z,340.85
2022-11-25T11:17:57.541Z,340.14
2022-11-25T11:18:57.672Z,350.31
2022-11-25T11:19:57.759Z,360.31
2022-11-25T11:20:57.908Z,366.75
2022-11-25T11:21:58.015Z,373.43
2022-11-25T11:22:58.101Z,383.46
2022-11-25T11:23:58.211Z,385.67
2022-11-25T11:24:58.355Z,397.63
2022-11-25T11:25:58.441Z,406.61
2022-11-25T11:26:58.547Z,414.18
2022-11-25T11:27:58.657Z,416.51
2022-11-25T11:28:58.870Z,428.28
2022-11-25T11:29:58.847Z,433.85
2022-11-25T11:30:59.004Z,435.27
2022-11-25T11:31:59.065Z,426.91
2022-11-25T11:32:59.244Z,430.77
2022-11-25T11:34:03.076Z,436.41
2022-11-25T11:34:59.493Z,438.13
2022-11-25T11:35:59.656Z,438.42
2022-11-25T11:36:59.748Z,440.15
2022-11-25T11:37:59.837Z,442.49
2022-11-25T11:39:00.002Z,443.37
2022-11-25T11:40:00.204Z,438.71
2022-11-25T11:41:00.213Z,441.03
2022-11-25T11:42:00.284Z,444.55
2022-11-25T11:43:00.442Z,448.44
2022-11-25T11:44:00.553Z,451.17
2022-11-25T11:45:00.664Z,455.80
2022-11-25T11:46:00.763Z,457.99
2022-11-25T11:47:00.917Z,455.18
2022-11-25T11:48:01.026Z,458.93
2022-11-25T11:49:01.220Z,455.80
2022-11-25T11:50:01.304Z,467.95
2022-11-25T11:51:01.444Z,468.61
2022-11-25T11:52:01.606Z,473.60
2022-11-25T11:53:01.722Z,479.05
2022-11-25T11:54:01.872Z,488.52
2022-11-25T11:55:01.998Z,499.50
2022-11-25T11:57:03.195Z,503.27
2022-11-25T11:58:02.359Z,510.98
2022-11-25T11:59:02.504Z,506.71
2022-11-25T12:00:02.542Z,512.16
2022-11-25T12:01:02.647Z,505.18
2022-11-25T12:02:02.850Z,505.94
2022-11-25T12:03:02.956Z,507.10
2022-11-25T12:04:03.049Z,506.71
2022-11-25T12:05:03.171Z,508.64
2022-11-25T12:06:03.277Z,505.56
2022-11-25T12:07:03.379Z,503.27
2022-11-25T12:08:03.557Z,504.41
2022-11-25T12:09:03.658Z,511.38
2022-11-25T12:10:03.773Z,509.03
2022-11-25T12:11:03.867Z,506.71
2022-11-25T12:12:03.988Z,497.64
2022-11-25T12:13:04.146Z,494.32
2022-11-25T12:14:04.256Z,498.01
2022-11-25T12:15:04.362Z,499.13
2022-11-25T12:16:04.478Z,495.79
2022-11-25T12:17:04.616Z,500.62
2022-11-25T12:18:04.648Z,496.52
2022-11-25T12:19:05.325Z,496.89
2022-11-25T12:20:04.920Z,491.04
2022-11-25T12:21:04.994Z,487.81
2022-11-25T12:22:05.141Z,479.05
2022-11-25T12:23:05.246Z,477.33
2022-11-25T12:24:05.395Z,469.27
2022-11-25T12:25:05.504Z,457.05
2022-11-25T12:26:05.625Z,457.67
2022-11-25T12:27:05.724Z,461.48
2022-11-25T12:28:05.823Z,462.11
2022-11-25T12:29:05.983Z,458.93
2022-11-25T12:30:06.035Z,461.16
2022-11-25T12:31:06.296Z,450.26
2022-11-25T12:32:06.368Z,448.74
2022-11-25T12:33:06.444Z,449.35
2022-11-25T12:34:06.712Z,446.64
2022-11-25T12:35:06.692Z,437.55
2022-11-25T12:36:06.819Z,431.89
2022-11-25T12:37:11.987Z,433.85
2022-11-25T12:38:08.061Z,425.55
2022-11-25T12:39:07.211Z,423.65
2022-11-25T12:40:07.322Z,432.17